createdAt,value
2023-04-29T00:04:17.367Z,56.80
2023-04-29T00:09:25.989Z,56.57
2023-04-29T00:14:33.641Z,56.58
2023-04-29T00:19:41.608Z,56.53
2023-04-29T00:24:49.277Z,56.49
2023-04-29T00:29:57.549Z,56.52
2023-04-29T00:35:06.425Z,56.46
2023-04-29T00:40:15.714Z,56.33
2023-04-29T00:45:24.237Z,56.51
2023-04-29T00:50:32.611Z,56.27
2023-04-29T00:55:41.150Z,56.14
2023-04-29T01:00:50.019Z,56.20
2023-04-29T01:06:07.573Z,55.97
2023-04-29T01:11:18.020Z,56.18
2023-04-29T01:16:33.292Z,56.00
2023-04-29T01:21:51.360Z,55.92
2023-04-29T01:27:06.044Z,56.05
2023-04-29T01:32:33.340Z,55.97
2023-04-29T01:37:51.517Z,55.99
2023-04-29T01:43:04.959Z,55.95
2023-04-29T01:48:14.778Z,55.95
2023-04-29T01:53:23.316Z,55.68
2023-04-29T01:58:32.357Z,55.78
2023-04-29T02:04:00.326Z,55.92
2023-04-29T02:09:08.287Z,55.99
2023-04-29T02:14:17.871Z,56.12
2023-04-29T02:19:27.699Z,56.10
2023-04-29T02:24:37.290Z,56.02
2023-04-29T02:29:45.564Z,56.05
2023-04-29T02:34:54.073Z,56.12
2023-04-29T02:40:02.999Z,56.09
2023-04-29T02:45:13.908Z,56.01
2023-04-29T02:50:22.408Z,56.27
2023-04-29T02:55:31.213Z,56.22
2023-04-29T03:00:44.279Z,56.54
2023-04-29T03:05:51.502Z,56.61
2023-04-29T03:10:59.627Z,56.57
2023-04-29T03:16:08.985Z,56.57
2023-04-29T03:21:18.039Z,56.54
2023-04-29T03:26:26.679Z,56.67
2023-04-29T03:31:35.681Z,56.73
2023-04-29T03:36:42.961Z,56.80
2023-04-29T03:41:52.523Z,56.70
2023-04-29T03:47:01.339Z,56.88
2023-04-29T03:52:09.533Z,56.85
2023-04-29T03:57:18.106Z,56.81
2023-04-29T04:02:27.049Z,56.74
2023-04-29T04:07:35.549Z,56.69
2023-04-29T04:13:13.644Z,56.85
2023-04-29T04:18:21.301Z,56.68
2023-04-29T04:23:29.222Z,56.59
2023-04-29T04:28:38.018Z,56.73
2023-04-29T04:34:02.710Z,56.93
2023-04-29T04:39:12.007Z,56.87
2023-04-29T04:44:20.394Z,56.87
2023-04-29T04:49:37.496Z,57.02
2023-04-29T04:54:48.715Z,56.96
2023-04-29T04:59:59.593Z,57.02
2023-04-29T05:05:09.021Z,56.92
2023-04-29T05:10:18.257Z,57.06
2023-04-29T05:15:30.010Z,57.08
2023-04-29T05:20:40.439Z,57.12
2023-04-29T05:25:48.188Z,57.04
2023-04-29T05:30:58.170Z,56.94
2023-04-29T05:36:07.125Z,57.05
2023-04-29T05:41:15.821Z,57.08
2023-04-29T05:46:37.579Z,56.79
2023-04-29T05:51:45.971Z,56.72
2023-04-29T05:56:54.446Z,56.42
2023-04-29T06:02:02.916Z,56.17
2023-04-29T06:07:13.197Z,55.94
2023-04-29T06:12:39.250Z,55.99
2023-04-29T06:17:46.644Z,55.54
2023-04-29T06:22:55.323Z,55.67
2023-04-29T06:28:08.884Z,55.34
2023-04-29T06:33:21.410Z,55.05
2023-04-29T06:38:30.805Z,55.01
2023-04-29T06:43:58.316Z,54.54
2023-04-29T06:49:38.345Z,54.08
2023-04-29T06:54:47.404Z,53.87
2023-04-29T06:59:56.196Z,53.46
2023-04-29T07:05:06.834Z,52.76
2023-04-29T07:10:15.670Z,52.50
2023-04-29T07:15:23.971Z,52.13
2023-04-29T07:20:32.021Z,51.69
2023-04-29T07:25:40.856Z,51.37
2023-04-29T07:30:50.390Z,51.12
2023-04-29T07:35:59.243Z,50.55
2023-04-29T07:41:08.027Z,50.14
2023-04-29T07:46:16.764Z,49.62
2023-04-29T07:51:25.799Z,49.21
2023-04-29T07:56:35.280Z,48.95
2023-04-29T08:01:44.144Z,47.97
2023-04-29T08:06:53.890Z,47.71
2023-04-29T08:12:02.203Z,47.81
2023-04-29T08:17:10.352Z,47.94
2023-04-29T08:22:18.579Z,47.71
2023-04-29T08:27:26.471Z,47.21
2023-04-29T08:32:35.658Z,46.79
2023-04-29T08:37:43.539Z,46.33
2023-04-29T08:42:52.433Z,45.82
2023-04-29T08:48:03.141Z,45.35
2023-04-29T08:53:11.813Z,44.83
2023-04-29T08:58:21.228Z,44.24
2023-04-29T09:03:33.741Z,43.98
2023-04-29T09:08:42.558Z,44.12
2023-04-29T09:13:50.531Z,44.06
2023-04-29T09:18:58.848Z,44.15
2023-04-29T09:24:08.077Z,43.54
2023-04-29T09:29:16.696Z,43.96
2023-04-29T09:34:36.196Z,43.64
2023-04-29T09:39:44.006Z,43.77
2023-04-29T09:44:52.696Z,42.52
2023-04-29T09:50:16.798Z,42.44
2023-04-29T09:55:24.369Z,42.14
2023-04-29T10:00:35.935Z,42.37
2023-04-29T10:05:44.377Z,42.06
2023-04-29T10:10:58.223Z,41.76
2023-04-29T10:16:17.720Z,41.58
2023-04-29T10:21:30.370Z,41.35
2023-04-29T10:26:41.299Z,41.18
2023-04-29T10:31:51.046Z,40.98
2023-04-29T10:36:59.648Z,40.64
2023-04-29T10:42:18.196Z,39.92
2023-04-29T10:47:26.402Z,39.55
2023-04-29T10:52:53.484Z,40.06
2023-04-29T10:58:01.301Z,39.63
2023-04-29T11:03:10.988Z,39.86
2023-04-29T11:08:24.634Z,39.72
2023-04-29T11:13:34.439Z,39.73
2023-04-29T11:19:08.734Z,38.57
2023-04-29T11:24:19.929Z,39.12
2023-04-29T11:29:28.485Z,39.40
2023-04-29T11:34:36.108Z,39.15
2023-04-29T11:39:43.945Z,38.77
2023-04-29T11:44:53.473Z,38.91
2023-04-29T11:50:10.135Z,38.73
2023-04-29T11:55:18.004Z,38.20
2023-04-29T12:00:26.424Z,38.24
2023-04-29T12:05:34.489Z,38.08
2023-04-29T12:10:42.494Z,38.32
2023-04-29T12:15:50.867Z,38.17
2023-04-29T12:20:59.205Z,37.94
2023-04-29T12:26:08.528Z,37.66
2023-04-29T12:31:18.794Z,37.17
2023-04-29T12:36:27.570Z,37.24
2023-04-29T12:41:45.157Z,37.17
2023-04-29T12:46:54.211Z,37.00
2023-04-29T12:52:03.241Z,35.90
2023-04-29T12:57:11.456Z,35.27
2023-04-29T13:02:19.833Z,35.79
2023-04-29T13:07:27.509Z,36.02
2023-04-29T13:12:34.865Z,36.15
2023-04-29T13:17:42.457Z,35.86
2023-04-29T13:22:50.694Z,35.73
2023-04-29T13:27:58.856Z,35.75
2023-04-29T13:33:12.421Z,35.87
2023-04-29T13:38:21.042Z,35.72
2023-04-29T13:43:37.546Z,35.37
2023-04-29T13:54:48.388Z,35.56
2023-04-29T14:04:34.525Z,35.67
2023-04-29T14:09:42.071Z,35.43
2023-04-29T14:14:49.928Z,35.22
2023-04-29T14:19:57.791Z,34.98
2023-04-29T14:25:05.952Z,34.97
2023-04-29T14:30:15.277Z,35.22
2023-04-29T14:35:23.540Z,35.41
2023-04-29T14:40:31.646Z,35.37
2023-04-29T14:45:39.475Z,35.28
2023-04-29T14:50:47.222Z,35.39
2023-04-29T14:55:55.050Z,35.51
2023-04-29T15:01:03.107Z,35.52
2023-04-29T15:06:10.910Z,35.45
2023-04-29T15:11:18.556Z,35.40
2023-04-29T15:16:26.088Z,35.34
2023-04-29T15:21:34.868Z,35.13
2023-04-29T15:26:42.747Z,35.40
2023-04-29T15:31:50.267Z,35.58
2023-04-29T15:36:57.888Z,35.62
2023-04-29T15:42:05.379Z,35.89
2023-04-29T15:47:13.535Z,36.07
2023-04-29T15:52:21.149Z,35.94
2023-04-29T15:57:28.833Z,36.04
2023-04-29T16:02:36.392Z,36.00
2023-04-29T16:07:43.869Z,36.08
2023-04-29T16:12:51.298Z,36.23
2023-04-29T16:18:00.222Z,36.21
2023-04-29T16:23:07.784Z,36.21
2023-04-29T16:28:15.142Z,36.37
2023-04-29T16:33:22.632Z,36.12
2023-04-29T16:38:31.250Z,36.30
2023-04-29T16:43:38.708Z,36.60
2023-04-29T16:48:46.372Z,36.47
2023-04-29T16:53:55.205Z,36.73
2023-04-29T16:59:02.646Z,36.85
2023-04-29T17:04:10.827Z,36.77
2023-04-29T17:09:18.669Z,36.63
2023-04-29T17:14:26.779Z,36.70
2023-04-29T17:19:34.987Z,36.67
2023-04-29T17:24:45.390Z,36.79
2023-04-29T17:29:54.025Z,36.88
2023-04-29T17:35:02.757Z,36.92
2023-04-29T17:40:12.253Z,36.92
2023-04-29T17:45:20.147Z,36.85
2023-04-29T17:50:28.497Z,37.17
2023-04-29T17:55:36.395Z,37.07
2023-04-29T18:00:43.861Z,37.33
2023-04-29T18:05:51.510Z,37.31
2023-04-29T18:10:59.178Z,37.40
2023-04-29T18:16:07.710Z,37.58
2023-04-29T18:21:21.471Z,37.70
2023-04-29T18:26:30.331Z,37.74
2023-04-29T18:31:37.850Z,37.94
2023-04-29T18:36:45.622Z,38.14
2023-04-29T18:41:53.750Z,38.20
2023-04-29T18:47:01.257Z,38.37
2023-04-29T18:52:09.243Z,38.43
2023-04-29T18:57:17.160Z,38.61
2023-04-29T19:02:25.088Z,38.73
2023-04-29T19:07:33.153Z,38.87
2023-04-29T19:12:40.517Z,39.07
2023-04-29T19:17:48.395Z,39.27
2023-04-29T19:22:57.512Z,39.35
2023-04-29T19:28:04.841Z,39.59
2023-04-29T19:33:12.810Z,39.59
2023-04-29T19:38:20.938Z,39.78
2023-04-29T19:43:28.328Z,39.92
2023-04-29T19:48:36.146Z,40.08
2023-04-29T19:53:44.507Z,40.13
2023-04-29T19:58:52.413Z,40.37
2023-04-29T20:04:00.590Z,40.49
2023-04-29T20:09:09.911Z,40.51
2023-04-29T20:14:17.276Z,40.75
2023-04-29T20:19:24.855Z,40.75
2023-04-29T20:24:32.396Z,40.88
2023-04-29T20:29:40.007Z,40.96
2023-04-29T20:34:47.493Z,41.14
2023-04-29T20:39:55.215Z,41.14
2023-04-29T20:45:03.573Z,41.31
2023-04-29T20:50:12.583Z,41.60
2023-04-29T20:55:20.273Z,41.78
2023-04-29T21:00:27.643Z,41.90
2023-04-29T21:05:35.236Z,42.22
2023-04-29T21:10:42.981Z,42.47
2023-04-29T21:15:50.750Z,42.52
2023-04-29T21:20:58.398Z,42.60
2023-04-29T21:26:06.429Z,42.93
2023-04-29T21:31:16.693Z,43.16
2023-04-29T21:36:24.333Z,43.12
2023-04-29T21:41:35.127Z,43.25
2023-04-29T21:46:43.108Z,43.48
2023-04-29T21:51:51.298Z,43.54
2023-04-29T21:56:58.876Z,43.78
2023-04-29T22:02:15.399Z,43.92
2023-04-29T22:07:24.405Z,44.06
2023-04-29T22:12:31.827Z,44.46
2023-04-29T22:17:39.499Z,44.76
2023-04-29T22:22:46.862Z,45.21
2023-04-29T22:27:54.517Z,45.72
2023-04-29T22:33:02.199Z,46.58
2023-04-29T22:38:10.062Z,47.14
2023-04-29T22:43:17.659Z,48.23
2023-04-29T22:48:27.659Z,48.99
2023-04-29T22:53:35.664Z,49.41
2023-04-29T22:58:43.439Z,50.00
2023-04-29T23:03:51.024Z,50.55
2023-04-29T23:08:58.458Z,50.85
2023-04-29T23:14:06.153Z,51.47
2023-04-29T23:19:13.497Z,52.07
2023-04-29T23:24:20.937Z,52.45
2023-04-29T23:29:28.397Z,53.09
2023-04-29T23:34:35.977Z,53.19
2023-04-29T23:39:43.429Z,53.96
2023-04-29T23:44:51.322Z,54.37
2023-04-29T23:49:58.995Z,54.70
2023-04-29T23:55:07.331Z,55.04
